Aabenraa, Denmark
Current Conditions -  °F | °C
As of 4:20 AM on Saturday 20 Dec 2014 (Local Time) from EKSP Reporting Station
Broken Clouds Broken Clouds  
Wind Chill: 34°   Ceiling: 3200
Heat Index: 43°   Visibility: 6mi
Dew Point: 36°   Wind: 23mph
Humidity: 76%   Direction: 260°W
Pressure: 29.59"   Gusts: NA
Location:  55.04°N, 9.42°E
Report Text: EKSP 200220Z 26020KT 9999 FEW016CB BKN032 06/02 Q1002
Loading
Personal Weather Stations






























Interactive Weather Map New forecast layout! Learn more

10-Day Weather Forecast

Advertisements
Track Severe Weather on mobile